Time;durP1;ratioP1;P1;durP2;ratioP2;P2;SDS_P1;SDS_P2;PMS_P1;PMS_P2;Temp;Humidity;BMP_temperature;BMP_pressure;BME280_temperature;BME280_humidity;BME280_pressure;Samples;Min_cycle;Max_cycle;Signal;HPM_P1;HPM_P2
2024/04/18 00:04:39;;;;;;;12.25;8.48;;;;;;;5.05;100.00;100133.63;10387211;28;20023;-77
2024/04/18 00:09:41;;;;;;;11.15;8.23;;;;;;;4.69;100.00;100129.56;10382799;28;20204;-77
2024/04/18 00:14:43;;;;;;;10.10;5.80;;;;;;;4.75;100.00;100126.53;10391651;28;20442;-77
2024/04/18 00:19:51;;;;;;;12.82;8.25;;;;;;;5.03;100.00;100136.34;10417409;28;20022;-77
2024/04/18 00:25:06;;;;;;;13.90;8.10;;;;;;;4.87;100.00;100124.91;10409581;28;20016;-77
2024/04/18 00:30:26;;;;;;;13.05;8.68;;;;;;;5.04;100.00;100135.41;10427146;28;20443;-77
2024/04/18 00:35:28;;;;;;;13.75;8.48;;;;;;;5.07;100.00;100142.34;10422510;28;20511;-77
2024/04/18 00:40:44;;;;;;;12.95;9.13;;;;;;;5.06;100.00;100138.81;10440129;28;20123;-77
2024/04/18 00:45:56;;;;;;;13.75;8.77;;;;;;;5.06;100.00;100146.81;10428395;28;20329;-77
2024/04/18 00:51:02;;;;;;;15.32;9.13;;;;;;;5.03;100.00;100154.16;10416081;28;20019;-77
2024/04/18 00:56:04;;;;;;;14.18;9.50;;;;;;;5.08;100.00;100153.88;10392638;28;20118;-77
2024/04/18 01:01:25;;;;;;;14.13;9.70;;;;;;;5.13;100.00;100157.06;10397055;28;20012;-77
2024/04/18 01:06:29;;;;;;;16.27;10.63;;;;;;;5.04;100.00;100156.69;10383666;28;20019;-77
2024/04/18 01:11:49;;;;;;;16.15;9.65;;;;;;;4.84;100.00;100154.38;10382587;28;20008;-77
2024/04/18 01:16:51;;;;;;;20.75;10.60;;;;;;;4.93;100.00;100168.94;10393462;28;20008;-75
2024/04/18 01:21:53;;;;;;;16.75;10.70;;;;;;;5.01;100.00;100170.19;10402030;28;20008;-75
2024/04/18 01:26:55;;;;;;;16.30;11.05;;;;;;;4.95;100.00;100172.34;10412339;28;20007;-76
2024/04/18 01:32:15;;;;;;;17.45;10.30;;;;;;;5.01;100.00;100174.66;10393256;28;20012;-75
2024/04/18 01:37:17;;;;;;;14.98;9.90;;;;;;;4.83;100.00;100180.16;10381712;28;20007;-75
2024/04/18 01:42:19;;;;;;;14.38;10.20;;;;;;;4.92;100.00;100192.03;10380681;28;20513;-77
2024/04/18 01:47:20;;;;;;;17.55;10.75;;;;;;;4.92;100.00;100193.84;10408730;28;20356;-77
2024/04/18 01:52:40;;;;;;;17.65;11.07;;;;;;;5.11;100.00;100196.28;10423108;28;20007;-77
2024/04/18 01:57:42;;;;;;;20.67;11.43;;;;;;;4.81;100.00;100202.47;10396191;28;20008;-77
2024/04/18 02:03:03;;;;;;;19.08;11.75;;;;;;;4.73;100.00;100204.72;10430472;28;20031;-77
2024/04/18 02:08:16;;;;;;;20.63;12.38;;;;;;;4.93;100.00;100209.72;10410361;28;20016;-77
2024/04/18 02:13:18;;;;;;;19.98;11.23;;;;;;;5.02;100.00;100213.69;10408388;28;20008;-77
2024/04/18 02:18:20;;;;;;;23.05;12.55;;;;;;;4.93;100.00;100225.69;10398675;28;20068;-77
2024/04/18 02:23:22;;;;;;;17.15;9.77;;;;;;;5.08;100.00;100225.75;10406238;28;20008;-77
2024/04/18 02:28:24;;;;;;;29.50;13.73;;;;;;;5.16;100.00;100218.16;10390688;28;20026;-77
2024/04/18 02:33:45;;;;;;;28.23;14.30;;;;;;;5.08;100.00;100237.25;10430536;28;20008;-77
2024/04/18 02:38:51;;;;;;;27.25;14.75;;;;;;;4.76;100.00;100233.81;10441612;28;20018;-77
2024/04/18 02:43:54;;;;;;;26.42;14.95;;;;;;;4.88;100.00;100232.22;10394442;28;20015;-77
2024/04/18 02:48:56;;;;;;;30.65;15.23;;;;;;;4.92;100.00;100228.44;10398244;28;20097;-77
2024/04/18 02:53:58;;;;;;;28.20;14.43;;;;;;;4.95;100.00;100231.78;10410229;28;20008;-77
2024/04/18 02:58:59;;;;;;;30.77;15.45;;;;;;;4.95;100.00;100239.75;10407225;28;20016;-76
2024/04/18 03:04:21;;;;;;;28.00;14.50;;;;;;;4.90;100.00;100243.66;10397084;28;20019;-77
2024/04/18 03:09:23;;;;;;;30.25;15.15;;;;;;;4.76;100.00;100237.34;10388500;28;20879;-77
2024/04/18 03:14:27;;;;;;;34.08;15.68;;;;;;;4.83;100.00;100251.16;10386884;28;20480;-77
2024/04/18 03:19:41;;;;;;;33.28;16.25;;;;;;;4.79;100.00;100261.09;10401785;28;20040;-77
2024/04/18 03:25:00;;;;;;;35.55;17.40;;;;;;;4.81;100.00;100255.69;10415202;28;20039;-77
2024/04/18 03:30:02;;;;;;;28.17;14.55;;;;;;;4.83;100.00;100259.97;10414861;28;20011;-76
2024/04/18 03:35:07;;;;;;;30.27;15.25;;;;;;;4.79;100.00;100268.22;10409404;28;20019;-76
2024/04/18 03:40:11;;;;;;;37.65;17.02;;;;;;;4.45;100.00;100282.66;10414404;28;20004;-77
2024/04/18 03:45:33;;;;;;;46.83;16.87;;;;;;;4.35;100.00;100274.31;10436609;28;20038;-77
2024/04/18 03:50:53;;;;;;;26.60;13.68;;;;;;;4.30;100.00;100281.69;10425207;28;20015;-77
2024/04/18 03:55:55;;;;;;;28.08;13.13;;;;;;;4.16;100.00;100283.31;10416050;28;20028;-77
2024/04/18 04:00:57;;;;;;;30.08;13.00;;;;;;;4.23;100.00;100296.31;10404611;28;20011;-77
2024/04/18 04:05:58;;;;;;;31.73;13.90;;;;;;;3.99;100.00;100299.38;10394231;28;20008;-77
2024/04/18 04:11:00;;;;;;;89.85;15.13;;;;;;;3.79;100.00;100310.25;10384273;28;20027;-77
2024/04/18 04:16:03;;;;;;;51.45;15.18;;;;;;;3.91;100.00;100314.88;10385007;28;20468;-77
2024/04/18 04:21:14;;;;;;;26.17;13.83;;;;;;;3.87;100.00;100321.31;10411335;28;20027;-77
2024/04/18 04:26:16;;;;;;;29.83;13.75;;;;;;;3.86;100.00;100332.88;10408507;28;20028;-77
2024/04/18 04:31:18;;;;;;;30.60;13.63;;;;;;;3.82;100.00;100339.31;10418082;28;20012;-77
2024/04/18 04:36:19;;;;;;;33.08;13.43;;;;;;;3.64;100.00;100339.31;10429485;28;20017;-77
2024/04/18 04:41:26;;;;;;;44.25;11.55;;;;;;;3.58;100.00;100349.41;10440380;28;20011;-77
2024/04/18 04:46:27;;;;;;;23.30;12.85;;;;;;;3.50;100.00;100361.28;10409101;28;20037;-77
2024/04/18 04:51:50;;;;;;;32.97;14.37;;;;;;;3.39;100.00;100370.75;10425856;28;20023;-77
2024/04/18 04:57:13;;;;;;;29.98;12.98;;;;;;;3.45;100.00;100373.09;10410663;28;20359;-77
2024/04/18 05:02:15;;;;;;;22.35;12.40;;;;;;;3.42;100.00;100376.75;10392961;28;20151;-77
2024/04/18 05:07:23;;;;;;;27.00;14.18;;;;;;;3.54;100.00;100385.91;10368477;28;20097;-77
2024/04/18 05:12:24;;;;;;;31.90;12.60;;;;;;;3.58;100.00;100398.09;10373598;28;20448;-77
2024/04/18 05:17:26;;;;;;;25.55;12.00;;;;;;;3.51;100.00;100399.31;10387102;28;20035;-77
2024/04/18 05:22:48;;;;;;;19.98;11.68;;;;;;;3.35;100.00;100407.25;10422617;28;20074;-77
2024/04/18 05:28:03;;;;;;;25.63;11.52;;;;;;;3.55;100.00;100424.81;10410917;28;20133;-77
2024/04/18 05:33:08;;;;;;;24.65;13.10;;;;;;;3.55;100.00;100430.13;10403446;28;20023;-77
2024/04/18 05:38:10;;;;;;;25.60;11.70;;;;;;;3.68;100.00;100438.34;10428442;28;20012;-77
2024/04/18 05:43:11;;;;;;;28.85;12.25;;;;;;;3.82;100.00;100446.44;10383991;28;20016;-76
2024/04/18 05:48:22;;;;;;;25.42;12.40;;;;;;;4.00;100.00;100451.72;10385289;28;20015;-76
2024/04/18 05:53:24;;;;;;;30.90;13.48;;;;;;;3.71;100.00;100459.44;10395862;28;20032;-77
2024/04/18 05:58:32;;;;;;;26.05;11.95;;;;;;;3.89;100.00;100468.22;10407192;28;20027;-77
2024/04/18 06:03:34;;;;;;;27.63;12.88;;;;;;;4.32;100.00;100471.28;10415827;28;20018;-77
2024/04/18 06:08:36;;;;;;;22.13;10.88;;;;;;;4.73;100.00;100487.66;10427318;28;20038;-77
2024/04/18 06:13:39;;;;;;;30.30;14.75;;;;;;;5.05;100.00;100477.94;10431076;28;20008;-77
2024/04/18 06:18:41;;;;;;;31.13;14.65;;;;;;;5.14;100.00;100489.00;10398755;28;20008;-77
2024/04/18 06:23:43;;;;;;;26.48;14.80;;;;;;;5.11;100.00;100497.16;10407582;28;20022;-77
2024/04/18 06:28:51;;;;;;;33.67;15.50;;;;;;;5.06;100.00;100506.25;10412159;28;20512;-77
2024/04/18 06:33:53;;;;;;;30.05;18.77;;;;;;;5.06;100.00;100510.72;10415198;28;20019;-77
2024/04/18 06:38:55;;;;;;;31.25;16.08;;;;;;;5.06;100.00;100514.25;10426158;28;20348;-75
2024/04/18 06:43:57;;;;;;;31.77;17.02;;;;;;;5.58;100.00;100514.91;10427466;28;20018;-77
2024/04/18 06:49:00;;;;;;;36.85;18.38;;;;;;;5.80;100.00;100509.16;10432760;28;20026;-77
2024/04/18 06:54:02;;;;;;;30.63;16.45;;;;;;;5.98;100.00;100525.84;10410512;28;20095;-76
2024/04/18 06:59:04;;;;;;;29.17;18.50;;;;;;;6.16;100.00;100522.94;10410225;28;20357;-76
2024/04/18 07:04:16;;;;;;;33.63;16.92;;;;;;;6.49;100.00;100527.19;10394899;28;20153;-76
2024/04/18 07:09:38;;;;;;;31.70;16.50;;;;;;;6.73;100.00;100537.31;10403406;28;20029;-76
2024/04/18 07:14:52;;;;;;;31.30;16.08;;;;;;;6.93;100.00;100536.91;10409082;28;20908;-76
2024/04/18 07:20:14;;;;;;;25.87;14.97;;;;;;;6.85;100.00;100528.50;10400269;28;20071;-76
2024/04/18 07:25:37;;;;;;;23.70;13.20;;;;;;;6.60;100.00;100540.72;10437616;28;20017;-76
2024/04/18 07:30:59;;;;;;;20.30;11.88;;;;;;;6.27;100.00;100548.13;10437624;28;20011;-76
2024/04/18 07:36:01;;;;;;;19.98;11.60;;;;;;;6.48;100.00;100546.81;10432376;28;20007;-76
2024/04/18 07:41:03;;;;;;;17.85;13.20;;;;;;;7.05;100.00;100554.84;10420979;28;20034;-76
2024/04/18 07:46:04;;;;;;;19.48;12.57;;;;;;;7.38;100.00;100559.00;10414286;28;20019;-76
2024/04/18 07:51:06;;;;;;;15.75;12.63;;;;;;;8.47;100.00;100558.84;10457644;28;20146;-76
2024/04/18 07:56:08;;;;;;;17.88;12.90;;;;;;;8.91;100.00;100566.44;10478363;28;20448;-76
2024/04/18 08:01:11;;;;;;;18.63;13.20;;;;;;;8.89;100.00;100565.72;10482920;28;20018;-75
2024/04/18 08:06:15;;;;;;;20.80;12.50;;;;;;;8.72;96.08;100564.22;10470118;28;20019;-76
2024/04/18 08:11:22;;;;;;;20.50;12.40;;;;;;;9.25;100.00;100566.72;10422768;28;20492;-75
2024/04/18 08:16:45;;;;;;;17.67;11.53;;;;;;;8.83;97.60;100574.16;10410188;28;20026;-76
2024/04/18 08:21:47;;;;;;;19.17;11.68;;;;;;;8.47;90.66;100570.41;10405007;28;20308;-76
2024/04/18 08:26:49;;;;;;;15.43;10.73;;;;;;;8.15;95.15;100581.50;10416277;28;20104;-76
2024/04/18 08:31:51;;;;;;;15.18;10.57;;;;;;;8.61;94.15;100582.84;10459025;28;20006;-76
2024/04/18 08:36:53;;;;;;;13.77;10.40;;;;;;;9.33;98.91;100591.13;10488258;28;20007;-76
2024/04/18 08:41:58;;;;;;;13.63;9.73;;;;;;;9.32;79.31;100597.44;10483677;28;20027;-76
2024/04/18 08:47:01;;;;;;;15.43;9.57;;;;;;;9.29;82.88;100595.84;10461572;28;20011;-76
2024/04/18 08:52:05;;;;;;;11.52;8.73;;;;;;;9.09;84.72;100600.94;10426612;28;20007;-76
2024/04/18 08:57:09;;;;;;;9.52;8.40;;;;;;;10.08;74.25;100590.09;10388684;28;20018;-76
2024/04/18 09:02:12;;;;;;;19.02;9.68;;;;;;;10.37;74.81;100595.94;10419574;28;20016;-75
2024/04/18 09:07:14;;;;;;;14.25;7.70;;;;;;;9.62;73.64;100604.22;10403710;28;20012;-76
2024/04/18 09:12:17;;;;;;;15.57;9.80;;;;;;;10.55;90.11;100601.72;10426380;28;20007;-76
2024/04/18 09:17:19;;;;;;;16.13;10.85;;;;;;;11.21;75.03;100616.19;10400304;28;20250;-76
2024/04/18 09:22:21;;;;;;;12.65;10.75;;;;;;;10.44;75.38;100607.06;10409616;28;20012;-76
2024/04/18 09:27:22;;;;;;;12.65;9.18;;;;;;;9.31;77.70;100610.97;10420617;28;20019;-76
2024/04/18 09:32:25;;;;;;;12.50;8.90;;;;;;;8.79;76.88;100618.22;10418866;28;20016;-76
2024/04/18 09:37:29;;;;;;;12.88;8.65;;;;;;;8.73;79.41;100615.97;10412586;28;20118;-76
2024/04/18 09:42:40;;;;;;;16.02;8.68;;;;;;;8.36;80.34;100608.63;10416987;28;20055;-76
2024/04/18 09:47:43;;;;;;;13.38;8.63;;;;;;;8.91;87.45;100611.97;10385533;28;20472;-77
2024/04/18 09:52:48;;;;;;;9.70;7.68;;;;;;;9.35;84.40;100607.97;10414149;28;20120;-76
2024/04/18 09:57:51;;;;;;;12.90;6.93;;;;;;;9.92;81.19;100619.91;10416862;28;20022;-76
2024/04/18 10:02:53;;;;;;;10.27;5.00;;;;;;;10.50;63.50;100617.31;10414829;28;20011;-76
2024/04/18 10:07:57;;;;;;;11.35;4.15;;;;;;;9.55;67.59;100622.59;10424697;28;20485;-76
2024/04/18 10:13:01;;;;;;;8.00;4.95;;;;;;;10.00;64.17;100614.81;10411679;28;20023;-76
2024/04/18 10:18:15;;;;;;;8.38;4.22;;;;;;;9.91;73.42;100620.88;10409895;28;20011;-76
2024/04/18 10:23:17;;;;;;;3.85;2.75;;;;;;;10.32;69.15;100622.28;10412794;28;20007;-75
2024/04/18 10:28:25;;;;;;;4.07;2.17;;;;;;;9.91;69.57;100620.88;10427340;28;20019;-75
2024/04/18 10:33:30;;;;;;;5.18;2.22;;;;;;;10.81;78.27;100622.03;10401402;28;20298;-76
2024/04/18 10:38:33;;;;;;;8.55;2.17;;;;;;;11.24;57.75;100624.03;10416743;28;20007;-75
2024/04/18 10:43:35;;;;;;;;;;;;;;;11.50;52.65;100623.78;10419330;28;20026;-76
2024/04/18 10:48:37;;;;;;;6.43;1.87;;;;;;;10.72;62.04;100621.88;10426750;28;20784;-76
2024/04/18 10:53:39;;;;;;;4.47;1.33;;;;;;;11.19;56.79;100628.06;10409423;28;20473;-76
2024/04/18 10:58:41;;;;;;;2.87;1.10;;;;;;;11.48;54.26;100629.25;10424321;28;20020;-74
2024/04/18 11:03:43;;;;;;;5.82;1.83;;;;;;;9.99;56.39;100631.06;10426524;28;20278;-76
2024/04/18 11:08:45;;;;;;;6.47;1.50;;;;;;;12.36;55.79;100617.50;10424491;28;20480;-76
2024/04/18 11:13:49;;;;;;;4.10;1.33;;;;;;;13.13;50.82;100618.97;10424818;28;20020;-76
2024/04/18 11:18:53;;;;;;;3.75;1.48;;;;;;;13.23;48.05;100613.63;10406110;28;20027;-76
2024/04/18 11:23:55;;;;;;;3.50;1.08;;;;;;;13.42;48.18;100604.78;10414356;28;20022;-75
2024/04/18 11:28:57;;;;;;;3.15;1.17;;;;;;;12.82;49.09;100613.56;10423718;28;20046;-76
2024/04/18 11:33:59;;;;;;;3.20;1.35;;;;;;;12.66;49.22;100606.94;10424177;28;20007;-76
2024/04/18 11:39:01;;;;;;;;;;;;;;;15.38;47.51;100604.47;10393377;28;20008;-76
2024/04/18 11:44:05;;;;;;;4.80;1.27;;;;;;;14.59;45.33;100611.13;10414482;28;19942;-76
2024/04/18 11:49:06;;;;;;;4.15;1.23;;;;;;;14.03;45.47;100609.97;10418686;28;20019;-76
2024/04/18 11:54:08;;;;;;;8.90;1.45;;;;;;;12.51;49.79;100611.81;10410175;28;20030;-76
2024/04/18 11:59:10;;;;;;;2.55;1.73;;;;;;;11.75;49.69;100617.22;10416324;28;20556;-76
2024/04/18 12:04:12;;;;;;;3.27;1.33;;;;;;;11.38;51.08;100624.75;10422203;28;20019;-76
2024/04/18 12:09:15;;;;;;;5.22;1.60;;;;;;;10.91;53.45;100621.31;10429782;28;20536;-76
2024/04/18 12:14:17;;;;;;;5.68;1.40;;;;;;;12.03;51.50;100613.09;10429017;28;20369;-76
2024/04/18 12:19:27;;;;;;;2.85;1.38;;;;;;;11.65;47.01;100616.28;10428644;28;20022;-76
2024/04/18 12:24:29;;;;;;;4.30;1.20;;;;;;;13.14;45.24;100601.81;10409959;28;20483;-76
2024/04/18 12:29:46;;;;;;;6.57;1.90;;;;;;;13.42;44.74;100599.38;10427529;28;20020;-76
2024/04/18 12:34:49;;;;;;;5.53;1.90;;;;;;;13.66;44.46;100601.72;10399385;28;20003;-76
2024/04/18 12:39:51;;;;;;;6.20;1.92;;;;;;;13.76;46.28;100612.50;10433341;28;20884;-76
2024/04/18 12:44:59;;;;;;;6.53;2.00;;;;;;;12.12;47.73;100598.00;10435047;28;20472;-76
2024/04/18 12:50:01;;;;;;;5.63;1.33;;;;;;;12.04;48.47;100606.75;10423883;28;20003;-76
2024/04/18 12:55:03;;;;;;;1.90;1.17;;;;;;;11.85;46.48;100602.03;10414739;28;20766;-76
2024/04/18 13:00:05;;;;;;;2.15;1.40;;;;;;;11.93;46.31;100598.72;10421502;28;20434;-76
2024/04/18 13:05:30;;;;;;;5.30;1.70;;;;;;;11.01;46.86;100604.31;10406509;28;20011;-76
2024/04/18 13:10:38;;;;;;;6.65;1.50;;;;;;;11.59;45.80;100593.41;10424695;28;20026;-76
2024/04/18 13:15:56;;;;;;;5.55;1.10;;;;;;;12.42;44.96;100581.09;10407489;28;20008;-76
2024/04/18 13:21:03;;;;;;;4.65;0.98;;;;;;;12.43;43.95;100565.81;10411964;28;20011;-76
2024/04/18 13:26:05;;;;;;;3.75;1.02;;;;;;;12.10;43.73;100571.22;10417005;28;20044;-75
2024/04/18 13:31:12;;;;;;;3.65;0.90;;;;;;;12.15;45.35;100571.69;10407047;28;20022;-76
2024/04/18 13:36:20;;;;;;;3.88;0.77;;;;;;;11.95;44.33;100575.19;10429019;28;20026;-76
2024/04/18 13:41:36;;;;;;;2.50;0.98;;;;;;;12.52;42.36;100563.16;10409196;28;20008;-75
2024/04/18 13:46:51;;;;;;;4.68;1.10;;;;;;;13.51;38.36;100573.41;10419062;28;20034;-76
2024/04/18 13:52:11;;;;;;;3.08;0.57;;;;;;;13.84;39.02;100556.81;10410756;28;20012;-76
2024/04/18 13:57:33;;;;;;;5.17;0.70;;;;;;;13.21;38.69;100553.53;10425610;28;20485;-76
2024/04/18 14:02:53;;;;;;;2.40;0.70;;;;;;;14.27;37.07;100539.31;10428624;28;20011;-76
2024/04/18 14:07:55;;;;;;;2.30;0.75;;;;;;;14.86;37.42;100541.88;10442916;28;20065;-75
2024/04/18 14:13:03;;;;;;;4.22;0.85;;;;;;;12.66;38.97;100544.94;10436215;28;20083;-75
2024/04/18 14:24:00;;;;;;;2.42;0.80;;;;;;;13.64;38.73;100528.09;10412229;28;20027;-75
2024/04/18 14:29:02;;;;;;;1.08;0.75;;;;;;;15.14;36.81;100540.03;10417986;28;20030;-75
2024/04/18 14:34:04;;;;;;;2.60;0.52;;;;;;;12.56;38.25;100540.38;10420065;28;20022;-75
2024/04/18 14:39:06;;;;;;;2.20;0.70;;;;;;;12.33;39.16;100546.88;10425890;28;20011;-76
2024/04/18 14:44:08;;;;;;;2.77;0.70;;;;;;;11.95;39.85;100542.88;10429287;28;20345;-76
2024/04/18 14:49:10;;;;;;;1.53;0.63;;;;;;;12.54;39.44;100541.50;10422464;28;20023;-75
2024/04/18 14:54:12;;;;;;;3.03;1.00;;;;;;;12.46;40.20;100542.16;10415856;28;20282;-75
2024/04/18 14:59:13;;;;;;;3.03;1.02;;;;;;;12.38;42.66;100556.28;10423013;28;20337;-74
2024/04/18 15:04:15;;;;;;;2.20;1.10;;;;;;;13.42;40.32;100548.97;10428285;28;20015;-77
2024/04/18 15:09:38;;;;;;;2.95;1.00;;;;;;;12.02;40.40;100554.84;10409637;28;20055;-75
2024/04/18 15:14:44;;;;;;;4.35;0.90;;;;;;;10.99;42.88;100551.66;10431251;28;20766;-76
2024/04/18 15:19:45;;;;;;;4.70;1.17;;;;;;;11.86;42.10;100543.69;10432330;28;20019;-76
2024/04/18 15:25:23;;;;;;;2.17;0.55;;;;;;;12.19;42.30;100533.72;10401873;28;20012;-76
2024/04/18 15:30:24;;;;;;;3.40;1.15;;;;;;;12.11;41.56;100547.84;10389500;28;20019;-76
2024/04/18 15:35:26;;;;;;;0.93;0.70;;;;;;;11.21;43.25;100540.06;10413576;28;20019;-76
2024/04/18 15:40:47;;;;;;;3.28;0.90;;;;;;;11.11;43.49;100531.00;10416864;28;20249;-76
2024/04/18 15:45:48;;;;;;;1.37;0.87;;;;;;;10.90;44.16;100545.19;10423547;28;20661;-76
2024/04/18 15:50:56;;;;;;;8.73;1.25;;;;;;;10.86;45.16;100537.50;10428100;28;20682;-76
2024/04/18 15:56:05;;;;;;;3.17;1.10;;;;;;;11.04;45.73;100544.09;10423853;28;20013;-77
2024/04/18 16:01:27;;;;;;;3.08;1.00;;;;;;;10.87;45.29;100549.97;10440976;28;20018;-76
2024/04/18 16:07:07;;;;;;;2.38;0.55;;;;;;;10.41;46.50;100562.50;10482717;28;20429;-76
2024/04/18 16:12:47;;;;;;;3.58;1.05;;;;;;;10.28;47.89;100548.28;10480840;28;20014;-76
2024/04/18 16:17:49;;;;;;;1.73;0.70;;;;;;;10.86;48.24;100542.88;10484148;28;20029;-76
2024/04/18 16:22:51;;;;;;;6.10;0.80;;;;;;;10.47;48.35;100539.66;10426722;28;20424;-76
2024/04/18 16:28:02;;;;;;;2.75;0.88;;;;;;;9.77;47.52;100543.22;10406353;28;20015;-76
2024/04/18 16:33:04;;;;;;;1.15;0.60;;;;;;;10.20;48.30;100538.16;10423545;28;20008;-75
2024/04/18 16:38:07;;;;;;;5.68;1.27;;;;;;;10.36;48.70;100530.63;10404651;28;20448;-76
2024/04/18 16:43:35;;;;;;;2.88;0.95;;;;;;;10.28;48.46;100533.03;10399243;28;20467;-76
2024/04/18 16:48:39;;;;;;;1.20;0.85;;;;;;;10.57;49.31;100538.84;10420457;28;20019;-76
2024/04/18 16:53:41;;;;;;;5.30;2.10;;;;;;;10.25;49.05;100535.97;10424183;28;20003;-76
2024/04/18 16:58:49;;;;;;;3.65;1.10;;;;;;;10.04;50.27;100518.81;10420629;28;20017;-76
2024/04/18 17:03:51;;;;;;;;;;;;;;;9.77;52.58;100532.50;10434193;28;20012;-74
2024/04/18 17:09:06;;;;;;;2.08;1.30;;;;;;;10.32;51.48;100529.16;10432709;28;19930;-76
2024/04/18 17:14:07;;;;;;;3.97;1.52;;;;;;;9.92;50.99;100523.31;10431968;28;20008;-76
2024/04/18 17:19:09;;;;;;;1.45;1.25;;;;;;;9.38;51.60;100524.63;10427627;28;20486;-76
2024/04/18 17:24:13;;;;;;;1.23;0.90;;;;;;;9.62;51.42;100518.41;10381086;28;20023;-76
2024/04/18 17:29:33;;;;;;;5.18;0.95;;;;;;;9.49;51.64;100527.38;10394627;28;20035;-76
2024/04/18 17:34:35;;;;;;;3.67;1.00;;;;;;;9.19;52.14;100529.63;10415765;28;20096;-76
2024/04/18 17:39:44;;;;;;;4.03;0.90;;;;;;;9.56;51.93;100529.59;10409208;28;20015;-76
2024/04/18 17:44:46;;;;;;;4.97;1.42;;;;;;;9.64;52.73;100527.19;10400406;28;20535;-76
2024/04/18 17:50:08;;;;;;;10.05;1.30;;;;;;;9.15;53.65;100528.97;10424060;28;20480;-76
2024/04/18 17:55:15;;;;;;;2.33;1.10;;;;;;;8.98;54.95;100521.31;10413011;28;20161;-76
2024/04/18 18:00:17;;;;;;;2.20;1.13;;;;;;;9.28;54.08;100524.44;10420824;28;20133;-76
2024/04/18 18:05:19;;;;;;;6.40;1.30;;;;;;;8.81;55.96;100528.75;10427204;28;20134;-76
2024/04/18 18:10:21;;;;;;;3.77;1.30;;;;;;;8.88;56.11;100528.28;10431167;28;20132;-76
2024/04/18 18:15:46;;;;;;;4.32;1.45;;;;;;;8.86;57.29;100531.09;10411781;28;20301;-77
2024/04/18 18:20:48;;;;;;;3.42;1.38;;;;;;;8.32;59.16;100532.16;10400672;28;20007;-77
2024/04/18 18:25:50;;;;;;;4.33;1.80;;;;;;;8.76;58.85;100535.41;10433642;28;20018;-77
2024/04/18 18:30:52;;;;;;;4.67;1.93;;;;;;;8.32;60.80;100524.13;10423590;28;20245;-77
2024/04/18 18:36:00;;;;;;;5.47;1.75;;;;;;;8.44;61.07;100529.59;10413542;28;20467;-77
2024/04/18 18:41:02;;;;;;;5.60;1.92;;;;;;;8.25;61.73;100533.53;10432607;28;20012;-77
2024/04/18 18:46:04;;;;;;;3.05;2.72;;;;;;;8.36;61.72;100530.13;10449461;28;20807;-77
2024/04/18 18:51:06;;;;;;;4.70;2.10;;;;;;;8.26;62.33;100532.59;10433847;28;20008;-77
2024/04/18 18:56:08;;;;;;;4.25;2.50;;;;;;;8.34;62.68;100530.25;10411172;28;20104;-77
2024/04/18 19:01:28;;;;;;;4.90;2.33;;;;;;;8.10;64.32;100530.09;10410896;28;20019;-77
2024/04/18 19:06:52;;;;;;;10.02;4.57;;;;;;;8.38;63.69;100526.38;10403583;28;20004;-77
2024/04/18 19:11:54;;;;;;;5.28;2.28;;;;;;;7.92;65.96;100509.94;10408224;28;20029;-77
2024/04/18 19:16:56;;;;;;;3.87;2.07;;;;;;;8.05;66.12;100509.97;10416068;28;20022;-77
2024/04/18 19:21:58;;;;;;;4.50;2.28;;;;;;;7.58;67.32;100511.38;10465701;28;20289;-77
2024/04/18 19:27:00;;;;;;;4.60;2.08;;;;;;;8.02;65.94;100511.03;10422005;28;20014;-77
2024/04/18 19:32:02;;;;;;;3.65;2.15;;;;;;;7.68;67.20;100510.66;10417501;28;20435;-77
2024/04/18 19:37:04;;;;;;;3.55;1.55;;;;;;;7.89;66.81;100503.00;10417860;28;20016;-77
2024/04/18 19:42:06;;;;;;;4.53;2.03;;;;;;;7.73;67.18;100508.53;10419229;28;20368;-78
2024/04/18 19:47:08;;;;;;;6.47;2.42;;;;;;;7.52;68.28;100519.81;10428158;28;20022;-78
2024/04/18 19:52:10;;;;;;;6.35;3.60;;;;;;;7.77;67.53;100514.53;10439029;28;20030;-78
2024/04/18 19:57:12;;;;;;;3.50;2.10;;;;;;;7.82;67.46;100500.84;10428016;28;20016;-78
2024/04/18 20:02:13;;;;;;;9.00;3.00;;;;;;;7.79;67.38;100501.94;10431956;28;20217;-78
2024/04/18 20:07:15;;;;;;;4.17;2.67;;;;;;;7.77;66.61;100493.13;10437588;28;20655;-78
2024/04/18 20:12:17;;;;;;;4.05;2.15;;;;;;;7.65;66.41;100488.59;10420339;28;20030;-78
2024/04/18 20:17:39;;;;;;;4.83;2.03;;;;;;;7.82;66.30;100480.31;10430242;28;20809;-78
2024/04/18 20:22:41;;;;;;;5.43;1.70;;;;;;;7.58;66.59;100484.63;10437833;28;20011;-78
2024/04/18 20:27:44;;;;;;;7.63;2.38;;;;;;;7.65;66.75;100472.56;10431886;28;20015;-77
2024/04/18 20:32:46;;;;;;;4.18;2.33;;;;;;;7.78;66.13;100478.78;10430146;28;20023;-77
2024/04/18 20:37:47;;;;;;;4.97;1.83;;;;;;;7.67;66.46;100478.66;10429089;28;20012;-77
2024/04/18 20:42:49;;;;;;;7.20;2.20;;;;;;;7.34;68.65;100469.25;10432046;28;20009;-77
2024/04/18 20:47:52;;;;;;;4.80;2.35;;;;;;;7.43;68.38;100466.00;10420254;28;20126;-78
2024/04/18 20:52:53;;;;;;;;;;;;;;;7.66;67.86;100464.44;10417400;28;20110;-78
2024/04/18 20:57:55;;;;;;;3.25;2.05;;;;;;;7.61;67.73;100457.69;10400640;28;19938;-77
2024/04/18 21:02:59;;;;;;;5.20;2.05;;;;;;;7.68;67.62;100456.34;10429062;28;20011;-78
2024/04/18 21:08:01;;;;;;;3.58;1.90;;;;;;;7.72;68.15;100452.47;10401066;28;20041;-78
2024/04/18 21:13:02;;;;;;;3.42;1.77;;;;;;;7.54;68.34;100445.69;10416789;28;20464;-77
2024/04/18 21:18:06;;;;;;;5.72;2.35;;;;;;;7.45;69.29;100440.00;10420947;28;20026;-77
2024/04/18 21:23:07;;;;;;;;;;;;;;;7.63;68.21;100437.91;10407661;28;20007;-78
2024/04/18 21:28:09;;;;;;;5.03;2.58;;;;;;;7.41;69.07;100457.22;10436847;28;20315;-78
2024/04/18 21:33:11;;;;;;;6.90;2.30;;;;;;;7.52;68.75;100439.63;10413301;28;20015;-78
2024/04/18 21:38:13;;;;;;;6.40;2.60;;;;;;;7.39;69.58;100434.22;10402938;28;20093;-78
2024/04/18 21:43:15;;;;;;;6.50;1.93;;;;;;;7.35;69.86;100430.91;10411404;28;20007;-78
2024/04/18 21:48:16;;;;;;;3.20;2.23;;;;;;;7.67;69.10;100431.38;10419460;28;20012;-78
2024/04/18 21:53:18;;;;;;;4.90;2.00;;;;;;;7.57;69.05;100429.44;10419398;28;20062;-78
2024/04/18 21:58:20;;;;;;;6.97;2.83;;;;;;;7.74;68.59;100423.81;10427289;28;20355;-78
2024/04/18 22:03:22;;;;;;;5.30;2.33;;;;;;;7.60;68.38;100406.06;10396814;28;20254;-78
2024/04/18 22:08:24;;;;;;;6.32;3.08;;;;;;;7.62;69.62;100401.44;10398812;28;20016;-78
2024/04/18 22:13:26;;;;;;;11.30;2.33;;;;;;;7.53;70.26;100398.56;10408908;28;20407;-78
2024/04/18 22:18:28;;;;;;;11.98;2.88;;;;;;;7.47;70.84;100384.63;10412492;28;20023;-78
2024/04/18 22:23:30;;;;;;;7.63;1.80;;;;;;;7.59;70.52;100374.91;10410062;28;20048;-78
2024/04/18 22:28:32;;;;;;;6.47;1.93;;;;;;;7.47;70.77;100368.59;10429076;28;20019;-78
2024/04/18 22:33:34;;;;;;;11.57;2.17;;;;;;;7.41;69.38;100358.34;10438734;28;20091;-78
2024/04/18 22:38:36;;;;;;;;;;;;;;;6.94;70.70;100357.06;10411557;28;20288;-78
2024/04/18 22:43:37;;;;;;;8.88;2.20;;;;;;;7.15;70.10;100360.09;10407995;28;19939;-78
2024/04/18 22:48:39;;;;;;;9.17;2.17;;;;;;;7.20;69.33;100349.09;10415564;28;20341;-78
2024/04/18 22:53:42;;;;;;;7.68;1.95;;;;;;;7.25;68.76;100342.47;10417909;28;20020;-78
2024/04/18 22:58:43;;;;;;;10.53;1.87;;;;;;;7.27;68.05;100345.91;10418153;28;20007;-77
2024/04/18 23:03:45;;;;;;;9.40;1.80;;;;;;;7.36;67.60;100330.22;10420350;28;20374;-77
2024/04/18 23:08:47;;;;;;;5.88;1.67;;;;;;;7.36;67.50;100325.72;10410682;28;20438;-77
2024/04/18 23:13:49;;;;;;;5.25;1.65;;;;;;;7.37;67.40;100322.06;10401631;28;20368;-77
2024/04/18 23:18:50;;;;;;;7.23;1.83;;;;;;;7.37;67.37;100310.53;10409302;28;20004;-78
2024/04/18 23:23:52;;;;;;;16.77;2.53;;;;;;;7.34;68.10;100308.09;10422497;28;20712;-77
2024/04/18 23:28:54;;;;;;;8.25;2.17;;;;;;;7.27;69.61;100294.31;10394540;28;20004;-77